logo
Search for airport 
image banner adimage banner adimage banner ad
image banner ad

LKRZ - Rozvadov

Located in Rozvadov, Czech Republic

ICAO - , IATA -

Data provided by Airmate  

General information

Coordinates: N49°40'7" E12°33'36"
Elevation is 1815 feet MSL.
 
View others Airports in Plzen Region

Operational data

Special qualification required
Current time UTC:
Current local time:
Weather at : ETIC - Grafenwoehr Aaf ( 45 km )
METAR: ETIC 200555Z AUTO 30010KT 9999 -RA OVC012 04/02 A2981 RMK AO2 DZE19RAB19E20DZB20E44RAB44 SLP107 P0000 60000 T00420022 10048 20039 52026 $
View NOTAMs / SUP AIP / TFR affecting this airport [VIEW]
Communications frequencies: [VIEW]

Runways:

Airport contact information

Address: Rozvadov Czech Republic

Satellite view of LKRZ